Time;durP1;ratioP1;P1;durP2;ratioP2;P2;SDS_P1;SDS_P2;PMS_P1;PMS_P2;Temp;Humidity;BMP_temperature;BMP_pressure;BME280_temperature;BME280_humidity;BME280_pressure;Samples;Min_cycle;Max_cycle;Signal;HPM_P1;HPM_P2
2022/08/26 00:02:07;;;;;;;5.13;3.20;;;24.50;78.40;;;25.22;76.40;100668.03;5113600;28;20051;-80
2022/08/26 00:04:40;;;;;;;6.00;2.95;;;24.50;78.60;;;25.25;76.19;100673.28;5146212;28;20051;-80
2022/08/26 00:07:13;;;;;;;4.30;3.00;;;24.50;78.50;;;25.26;75.92;100675.91;5129614;28;20462;-81
2022/08/26 00:09:47;;;;;;;5.07;3.17;;;24.50;78.30;;;25.29;75.96;100685.59;5129255;28;20053;-81
2022/08/26 00:12:20;;;;;;;3.83;2.72;;;24.50;78.30;;;25.30;75.88;100684.69;5129282;28;20134;-81
2022/08/26 00:14:53;;;;;;;5.30;2.90;;;24.60;78.20;;;25.31;75.51;100689.13;5129005;28;20058;-81
2022/08/26 00:17:28;;;;;;;4.28;2.70;;;24.60;78.20;;;25.31;75.57;100689.13;5113202;28;20074;-80
2022/08/26 00:22:45;;;;;;;4.93;2.60;;;24.60;78.00;;;25.26;75.35;100696.38;5166379;28;20050;-70
2022/08/26 00:25:17;;;;;;;3.90;2.50;;;24.60;78.10;;;25.22;75.40;100705.38;5178951;28;20058;-71
2022/08/26 00:27:50;;;;;;;6.00;3.22;;;24.50;78.20;;;25.15;75.01;100705.53;5166202;28;20061;-70
2022/08/26 00:30:26;;;;;;;4.53;2.85;;;24.50;78.10;;;25.11;75.28;100703.88;5146991;28;20047;-70
2022/08/26 00:33:04;;;;;;;4.57;2.85;;;24.40;78.00;;;25.06;75.30;100705.78;5147093;28;20050;-71
2022/08/26 00:35:37;;;;;;;4.07;2.85;;;24.40;78.10;;;25.05;75.48;100709.38;5146506;28;20051;-70
2022/08/26 00:38:10;;;;;;;5.03;2.88;;;24.40;78.90;;;25.03;75.35;100711.16;5153703;28;20066;-70
2022/08/26 00:40:47;;;;;;;4.97;3.00;;;24.40;78.40;;;25.02;75.50;100709.41;5166406;28;20495;-69
2022/08/26 00:43:20;;;;;;;4.57;2.53;;;24.30;78.30;;;25.00;75.63;100702.38;5165799;28;20196;-71
2022/08/26 00:45:57;;;;;;;4.03;2.75;;;24.30;78.50;;;24.97;75.84;100711.31;5166729;28;20403;-70
2022/08/26 00:48:33;;;;;;;4.30;2.97;;;24.30;78.70;;;24.94;76.25;100711.41;5165423;28;20502;-71
2022/08/26 00:51:12;;;;;;;5.70;2.90;;;24.30;79.00;;;24.90;76.30;100710.59;5166727;28;20050;-70
2022/08/26 00:53:49;;;;;;;4.18;2.47;;;24.20;79.20;;;24.86;76.92;100708.06;5149160;28;20054;-70
2022/08/26 00:56:27;;;;;;;6.72;2.88;;;24.20;79.50;;;24.85;77.27;100711.66;5166524;28;20121;-71
2022/08/26 00:59:06;;;;;;;5.88;3.17;;;24.20;80.00;;;24.82;77.37;100714.38;5166865;28;20125;-69
2022/08/26 01:01:42;;;;;;;4.93;2.83;;;24.10;80.20;;;24.80;78.20;100724.22;5166187;28;20054;-70
2022/08/26 01:04:20;;;;;;;5.03;3.15;;;24.10;80.70;;;24.75;78.62;100723.44;5166522;28;20117;-70
2022/08/26 01:06:54;;;;;;;3.90;2.78;;;24.10;80.90;;;24.72;79.24;100720.84;5166040;28;20075;-70
2022/08/26 01:09:27;;;;;;;5.85;3.20;;;24.10;81.60;;;24.70;79.94;100722.66;5166398;28;20134;-71
2022/08/26 01:12:02;;;;;;;5.25;3.67;;;24.00;82.20;;;24.67;80.87;100730.75;5148772;28;20046;-69
2022/08/26 01:14:36;;;;;;;7.03;4.35;;;24.00;82.80;;;24.61;81.55;100729.97;5166435;28;20061;-70
2022/08/26 01:17:09;;;;;;;8.63;4.40;;;24.00;83.50;;;24.59;82.43;100729.16;5165775;28;20047;-70
2022/08/26 01:19:46;;;;;;;7.78;4.22;;;23.90;84.20;;;24.56;83.51;100733.66;5165915;28;20125;-71
2022/08/26 01:22:25;;;;;;;7.70;4.80;;;23.90;85.10;;;24.55;84.34;100739.91;5165859;28;20531;-70
2022/08/26 01:25:00;;;;;;;9.57;6.60;;;23.90;85.90;;;24.51;85.70;100739.09;5166060;28;20419;-70
2022/08/26 01:27:34;;;;;;;11.88;6.85;;;23.90;87.10;;;24.46;87.72;100737.47;5148194;28;20085;-71
2022/08/26 01:30:10;;;;;;;14.55;8.02;;;23.80;88.80;;;24.43;89.35;100742.84;5165998;28;20426;-70
2022/08/26 01:32:43;;;;;;;12.32;7.80;;;23.80;90.20;;;24.39;90.82;100744.72;5165769;28;20042;-70
2022/08/26 01:35:15;;;;;;;16.90;10.45;;;23.80;90.80;;;24.36;91.90;100750.09;5165796;28;20058;-70
2022/08/26 01:37:51;;;;;;;13.18;8.23;;;23.80;91.40;;;24.31;92.67;100744.84;5165438;28;20052;-70
2022/08/26 01:40:31;;;;;;;9.38;7.10;;;23.70;91.90;;;24.33;93.57;100744.84;5165848;28;20549;-70
2022/08/26 01:43:07;;;;;;;10.32;7.20;;;23.70;92.40;;;24.34;94.18;100749.28;5165768;28;20050;-71
2022/08/26 01:45:41;;;;;;;11.80;7.97;;;23.70;92.80;;;24.35;94.47;100754.56;5165715;28;20042;-70
2022/08/26 01:48:19;;;;;;;15.45;10.27;;;23.70;93.20;;;24.36;95.06;100748.31;5165241;28;20129;-70
2022/08/26 01:50:52;;;;;;;14.52;10.20;;;23.70;93.60;;;24.30;96.50;100755.53;5165977;28;20048;-70
2022/08/26 01:53:26;;;;;;;15.13;9.20;;;23.70;94.10;;;24.27;97.26;100756.50;5165668;28;20499;-70
2022/08/26 01:56:02;;;;;;;20.88;14.02;;;23.70;94.60;;;24.21;98.29;100758.41;5163938;28;20046;-71
2022/08/26 01:58:40;;;;;;;19.27;11.77;;;23.60;95.10;;;24.18;99.34;100761.13;5165388;28;20547;-70
2022/08/26 02:01:13;;;;;;;16.10;10.52;;;23.60;95.70;;;24.17;100.00;100759.38;5165354;28;20066;-70
2022/08/26 02:03:56;;;;;;;22.67;14.25;;;23.60;96.20;;;24.14;100.00;100759.47;5165411;28;20179;-71
2022/08/26 02:06:28;;;;;;;22.67;14.55;;;23.50;96.80;;;24.09;100.00;100762.22;5165049;28;20117;-70
2022/08/26 02:09:03;;;;;;;21.77;14.88;;;23.50;97.40;;;24.05;100.00;100766.72;5165509;28;20571;-71
2022/08/26 02:11:37;;;;;;;21.35;14.38;;;23.50;98.00;;;24.04;100.00;100766.75;5148373;28;20121;-71
2022/08/26 02:14:14;;;;;;;23.25;14.55;;;23.50;98.50;;;24.03;100.00;100767.66;5165577;28;20053;-69
2022/08/26 02:16:50;;;;;;;21.95;14.07;;;23.50;98.80;;;24.01;100.00;100773.03;5165224;28;20103;-70
2022/08/26 02:19:27;;;;;;;26.08;17.40;;;23.40;99.10;;;23.98;100.00;100774.88;5165763;28;20053;-70
2022/08/26 02:22:04;;;;;;;22.95;15.43;;;23.40;99.50;;;23.95;100.00;100773.16;5165445;28;20056;-70
2022/08/26 02:24:48;;;;;;;41.95;25.73;;;23.30;99.80;;;23.89;100.00;100765.28;5165414;28;20054;-70
2022/08/26 02:27:28;;;;;;;34.65;21.27;;;23.30;99.90;;;23.79;100.00;100769.91;5164799;28;20442;-69
2022/08/26 02:30:12;;;;;;;39.63;24.10;;;23.30;99.90;;;23.72;100.00;100770.94;5165206;28;20398;-70
2022/08/26 02:32:45;;;;;;;33.80;21.13;;;23.20;99.90;;;23.67;100.00;100771.94;5165295;28;20056;-69
2022/08/26 02:35:20;;;;;;;43.10;24.50;;;23.20;99.90;;;23.63;100.00;100773.81;5165039;28;20058;-71
2022/08/26 02:37:53;;;;;;;40.50;25.48;;;23.10;99.90;;;23.54;100.00;100769.50;5164567;28;20424;-70
2022/08/26 02:40:30;;;;;;;38.28;24.00;;;23.00;99.90;;;23.49;100.00;100776.69;5164977;28;20491;-70
2022/08/26 02:43:04;;;;;;;34.88;21.45;;;23.00;99.90;;;23.41;100.00;100767.97;5165215;28;20061;-70
2022/08/26 02:45:38;;;;;;;32.78;21.40;;;22.90;99.90;;;23.39;100.00;100769.78;5164820;28;20422;-69
2022/08/26 02:48:15;;;;;;;30.10;19.25;;;22.90;99.90;;;23.39;100.00;100774.22;5165118;28;20072;-70
2022/08/26 02:50:48;;;;;;;31.10;19.30;;;22.90;99.90;;;23.37;100.00;100779.56;5165252;28;20038;-70
2022/08/26 02:53:20;;;;;;;34.55;21.10;;;22.90;99.90;;;23.39;100.00;100774.22;5165226;28;20054;-71
2022/08/26 02:55:52;;;;;;;34.70;21.38;;;22.80;99.90;;;23.38;100.00;100778.66;5164785;28;20046;-71
2022/08/26 02:58:25;;;;;;;29.42;18.13;;;22.90;99.90;;;23.33;100.00;100775.19;5165192;28;20046;-70
2022/08/26 03:00:57;;;;;;;28.10;19.48;;;22.80;99.90;;;23.31;100.00;100777.03;5165227;28;20384;-70
2022/08/26 03:03:30;;;;;;;28.50;17.23;;;22.80;99.90;;;23.29;100.00;100778.84;5165182;28;20039;-71
2022/08/26 03:06:02;;;;;;;33.10;20.27;;;22.80;99.90;;;23.23;100.00;100779.81;5164532;28;20050;-70
2022/08/26 03:08:34;;;;;;;32.53;19.65;;;22.70;99.90;;;23.22;100.00;100772.75;5165176;28;20046;-70
2022/08/26 03:11:07;;;;;;;27.75;17.75;;;22.70;99.90;;;23.23;100.00;100776.28;5166906;28;20402;-70
2022/08/26 03:13:41;;;;;;;35.67;21.48;;;22.70;99.90;;;23.20;100.00;100776.31;5168635;28;20081;-70
2022/08/26 03:16:14;;;;;;;36.45;22.08;;;22.70;99.90;;;23.16;100.00;100761.34;5168812;28;20054;-70
2022/08/26 03:18:46;;;;;;;36.47;21.05;;;22.60;99.90;;;23.12;100.00;100764.94;5168541;28;20061;-70
2022/08/26 03:21:19;;;;;;;29.52;18.40;;;22.60;99.90;;;23.10;100.00;100772.97;5168317;28;20049;-71
2022/08/26 03:23:51;;;;;;;29.77;18.65;;;22.60;99.90;;;23.08;100.00;100768.56;5151069;28;20077;-71
2022/08/26 03:26:24;;;;;;;33.30;19.45;;;22.60;99.90;;;23.05;100.00;100779.25;5168712;28;20049;-70
2022/08/26 03:31:47;;;;;;;27.00;16.58;;;22.50;99.90;;;23.08;100.00;100769.44;5168526;28;20057;-69
2022/08/26 03:34:19;;;;;;;32.17;18.55;;;22.50;99.90;;;23.10;100.00;100783.59;5168865;28;20555;-71
2022/08/26 03:36:51;;;;;;;25.30;15.50;;;22.50;99.90;;;23.10;100.00;100774.75;5168290;28;20549;-70
2022/08/26 03:39:24;;;;;;;31.77;18.08;;;22.50;99.90;;;23.09;100.00;100779.19;5168431;28;20128;-70
2022/08/26 03:41:57;;;;;;;24.65;15.90;;;22.60;99.90;;;23.12;100.00;100776.47;5168260;28;20086;-71
2022/08/26 03:44:30;;;;;;;21.55;13.23;;;22.60;99.90;;;23.18;100.00;100775.47;5168005;28;20157;-69
2022/08/26 03:47:03;;;;;;;20.73;13.95;;;22.60;99.90;;;23.24;100.00;100778.91;5167611;28;20054;-70
2022/08/26 03:49:35;;;;;;;23.80;14.57;;;22.70;99.90;;;23.27;100.00;100770.00;5167956;28;20051;-70
2022/08/26 03:52:07;;;;;;;24.65;15.77;;;22.70;99.90;;;23.29;100.00;100778.84;5168307;28;20133;-70
2022/08/26 03:54:40;;;;;;;25.60;16.25;;;22.70;99.90;;;23.28;100.00;100777.97;5168009;28;20050;-70
2022/08/26 03:57:12;;;;;;;24.52;15.13;;;22.70;99.90;;;23.28;100.00;100780.63;5167635;28;20038;-69
2022/08/26 03:59:46;;;;;;;22.17;14.07;;;22.70;99.90;;;23.31;100.00;100778.81;5167864;28;20053;-70
2022/08/26 04:02:18;;;;;;;26.83;16.13;;;22.70;99.90;;;23.32;100.00;100785.88;5167904;28;20513;-70
2022/08/26 04:04:50;;;;;;;20.25;12.93;;;22.80;99.90;;;23.34;100.00;100782.28;5167918;28;20046;-70
2022/08/26 04:07:24;;;;;;;27.52;16.45;;;22.80;99.90;;;23.37;100.00;100784.88;5166857;28;20050;-68
2022/08/26 04:09:57;;;;;;;24.30;13.85;;;22.80;99.90;;;23.35;100.00;100781.38;5166899;28;20113;-70
2022/08/26 04:12:29;;;;;;;25.15;14.93;;;22.80;99.90;;;23.35;100.00;100784.06;5167003;28;20048;-67
2022/08/26 04:15:05;;;;;;;28.75;18.08;;;22.80;99.90;;;23.34;100.00;100787.59;5166793;28;20053;-67
2022/08/26 04:17:37;;;;;;;29.25;17.13;;;22.80;99.90;;;23.33;100.00;100785.84;5166470;28;20527;-66
2022/08/26 04:20:12;;;;;;;42.22;22.50;;;22.80;99.90;;;23.29;100.00;100784.16;5166816;28;20046;-70
2022/08/26 04:22:45;;;;;;;26.25;16.35;;;22.80;99.90;;;23.27;100.00;100788.59;5167002;28;20046;-70
2022/08/26 04:25:18;;;;;;;29.23;17.17;;;22.70;99.90;;;23.28;100.00;100785.06;5167596;28;20559;-69
2022/08/26 04:27:51;;;;;;;27.23;15.25;;;;;;;23.33;100.00;100780.53;5167082;28;20105;-70
2022/08/26 04:30:25;;;;;;;29.60;17.27;;;22.80;99.90;;;23.36;100.00;100779.59;5149894;28;20047;-71
2022/08/26 04:32:57;;;;;;;31.08;17.35;;;22.80;99.90;;;23.34;100.00;100781.41;5167343;28;20046;-70
2022/08/26 04:35:29;;;;;;;28.10;15.68;;;22.80;99.90;;;23.36;100.00;100782.25;5167510;28;20057;-70
2022/08/26 04:38:02;;;;;;;31.33;17.65;;;22.80;99.90;;;23.34;100.00;100782.28;5167130;28;20129;-70
2022/08/26 04:40:34;;;;;;;32.00;16.90;;;22.80;99.90;;;23.36;100.00;100784.94;5167275;28;20038;-70
2022/08/26 04:43:06;;;;;;;32.97;18.40;;;22.80;99.90;;;23.34;100.00;100784.94;5167194;28;20043;-70
2022/08/26 04:45:42;;;;;;;38.33;19.45;;;22.80;99.90;;;23.32;100.00;100791.19;5167546;28;20158;-70
2022/08/26 04:48:14;;;;;;;35.72;16.95;;;22.80;99.90;;;23.31;100.00;100797.41;5167216;28;20522;-70
2022/08/26 04:50:46;;;;;;;27.33;15.80;;;22.80;99.90;;;23.32;100.00;100794.72;5167358;28;20043;-71
2022/08/26 04:53:18;;;;;;;24.67;14.73;;;22.80;99.90;;;23.35;100.00;100792.03;5166490;28;20064;-70
2022/08/26 04:55:50;;;;;;;29.30;16.50;;;22.80;99.90;;;23.37;100.00;100797.31;5166830;28;20053;-71
2022/08/26 04:58:24;;;;;;;34.72;19.00;;;22.80;99.90;;;23.34;100.00;100802.66;5166793;28;20047;-69
2022/08/26 05:00:58;;;;;;;36.65;20.38;;;22.80;99.90;;;23.31;100.00;100798.28;5167404;28;20046;-70
2022/08/26 05:03:30;;;;;;;34.17;19.50;;;22.80;99.90;;;23.27;100.00;100804.56;5166399;28;20050;-70
2022/08/26 05:06:05;;;;;;;31.00;17.30;;;22.80;99.90;;;23.27;100.00;100802.78;5166327;28;20426;-71
2022/08/26 05:08:37;;;;;;;28.80;15.82;;;22.80;99.90;;;23.27;100.00;100812.53;5166904;28;20057;-71
2022/08/26 05:11:10;;;;;;;37.83;20.30;;;22.80;99.90;;;23.26;100.00;100795.72;5166764;28;20117;-70
2022/08/26 05:13:42;;;;;;;33.10;17.63;;;22.70;99.90;;;23.24;100.00;100799.31;5166670;28;20427;-71
2022/08/26 05:16:16;;;;;;;28.33;16.27;;;22.70;99.90;;;23.24;100.00;100799.31;5165863;28;20125;-70
2022/08/26 05:18:48;;;;;;;28.33;15.20;;;22.70;99.90;;;23.24;100.00;100807.28;5166844;28;20046;-71
2022/08/26 05:21:24;;;;;;;28.48;16.90;;;22.70;99.90;;;23.26;100.00;100801.03;5166364;28;20403;-70
2022/08/26 05:23:56;;;;;;;29.25;16.00;;;22.70;99.90;;;23.27;100.00;100802.78;5166894;28;20056;-70
2022/08/26 05:26:31;;;;;;;22.30;13.93;;;22.80;99.90;;;23.32;100.00;100799.16;5166203;28;20435;-71
2022/08/26 05:29:05;;;;;;;23.52;13.55;;;22.80;99.90;;;23.38;100.00;100804.38;5148911;28;20518;-71
2022/08/26 05:31:38;;;;;;;28.13;14.65;;;22.80;99.90;;;23.38;100.00;100805.25;5166470;28;20050;-71
2022/08/26 05:34:11;;;;;;;26.40;14.35;;;22.80;99.90;;;23.35;100.00;100805.31;5164296;28;20042;-71
2022/08/26 05:36:43;;;;;;;23.95;13.25;;;22.80;99.90;;;23.38;100.00;100805.25;5147453;28;20082;-70
2022/08/26 05:39:16;;;;;;;21.20;12.23;;;22.80;99.90;;;23.40;100.00;100808.75;5164982;28;20521;-71
2022/08/26 05:41:48;;;;;;;15.85;10.38;;;22.90;99.90;;;23.43;100.00;100803.41;5165074;28;20053;-67
2022/08/26 05:44:20;;;;;;;15.40;9.25;;;22.90;99.90;;;23.51;100.00;100811.25;5164404;28;20058;-66
2022/08/26 05:46:54;;;;;;;13.95;8.13;;;22.90;99.90;;;23.61;100.00;100814.63;5146803;28;20120;-67
2022/08/26 05:49:26;;;;;;;13.52;7.88;;;23.00;99.90;;;23.69;100.00;100818.91;5164214;28;20042;-67
2022/08/26 05:51:58;;;;;;;15.25;9.77;;;23.20;99.90;;;23.82;100.00;100820.44;5164518;28;20046;-66
2022/08/26 05:54:32;;;;;;;15.82;8.98;;;23.30;99.90;;;23.93;100.00;100824.66;5164477;28;20080;-66
2022/08/26 05:57:05;;;;;;;15.82;9.27;;;23.40;99.90;;;24.02;100.00;100825.38;5164106;28;20093;-69
2022/08/26 05:59:37;;;;;;;15.07;9.25;;;23.50;99.90;;;24.12;100.00;100820.72;5164188;28;20121;-68
2022/08/26 06:02:11;;;;;;;18.45;10.45;;;23.60;99.90;;;24.19;100.00;100829.47;5164376;28;20042;-65
2022/08/26 06:04:43;;;;;;;16.45;10.02;;;23.70;99.90;;;24.20;100.00;100826.78;5164036;28;20575;-58
2022/08/26 06:07:15;;;;;;;17.05;9.18;;;23.70;99.90;;;24.23;100.00;100828.50;5163968;28;20503;-56
2022/08/26 06:09:48;;;;;;;15.52;9.55;;;23.70;99.90;;;24.26;100.00;100833.78;5164181;28;20543;-58
2022/08/26 06:12:20;;;;;;;14.70;8.68;;;23.80;99.90;;;24.30;100.00;100827.47;5163993;28;20117;-56
2022/08/26 06:14:52;;;;;;;14.32;9.02;;;23.80;99.90;;;24.35;100.00;100828.28;5164287;28;20045;-58
2022/08/26 06:17:26;;;;;;;16.35;9.35;;;23.90;99.90;;;24.39;100.00;100829.97;5163668;28;20447;-58
2022/08/26 06:19:59;;;;;;;13.35;8.98;;;23.90;99.90;;;24.39;100.00;100835.31;5164136;28;20472;-61
2022/08/26 06:25:38;;;;;;;13.43;8.10;;;23.90;99.90;;;24.48;100.00;100835.09;5163825;28;20053;-58
2022/08/26 06:28:12;;;;;;;13.48;7.93;;;24.00;99.90;;;24.50;100.00;100837.72;5163867;28;20049;-59
2022/08/26 06:30:44;;;;;;;16.15;9.70;;;24.00;99.90;;;24.51;100.00;100837.69;5163897;28;20050;-57
2022/08/26 06:33:18;;;;;;;14.48;8.40;;;24.00;99.90;;;24.50;100.00;100827.94;5163749;28;20056;-56
2022/08/26 06:35:52;;;;;;;13.63;8.07;;;24.00;99.90;;;24.49;100.00;100831.50;5163488;28;20042;-57
2022/08/26 06:38:24;;;;;;;15.18;9.20;;;24.00;99.90;;;24.50;100.00;100841.25;5163830;28;20129;-58
2022/08/26 06:40:57;;;;;;;17.08;9.25;;;24.00;99.90;;;24.45;100.00;100837.84;5163683;28;20049;-57
2022/08/26 06:43:29;;;;;;;13.77;8.60;;;24.00;99.90;;;24.42;100.00;100843.22;5163945;28;20526;-58
2022/08/26 06:46:03;;;;;;;17.27;9.50;;;24.00;99.90;;;24.43;100.00;100839.63;5164998;28;20104;-58
2022/08/26 06:48:38;;;;;;;14.98;9.15;;;23.90;99.90;;;24.41;100.00;100848.59;5167762;28;20045;-58
2022/08/26 06:51:13;;;;;;;13.57;8.48;;;23.90;99.90;;;24.43;100.00;100846.75;5167966;28;20053;-59
2022/08/26 06:53:48;;;;;;;14.05;8.35;;;23.90;99.90;;;24.45;100.00;100845.84;5167837;28;20496;-58
2022/08/26 06:56:27;;;;;;;11.60;7.70;;;24.00;99.90;;;24.49;100.00;100842.16;5167359;28;20049;-58
2022/08/26 06:59:00;;;;;;;12.55;8.27;;;24.00;99.90;;;24.50;100.00;100843.91;5167683;28;20146;-57
2022/08/26 07:01:36;;;;;;;13.73;7.30;;;24.00;99.90;;;24.52;100.00;100852.78;5167580;28;20141;-57
2022/08/26 07:04:11;;;;;;;12.40;7.88;;;24.00;99.90;;;24.53;100.00;100845.66;5167393;28;20053;-58
2022/08/26 07:06:47;;;;;;;14.55;8.13;;;24.00;99.90;;;24.49;100.00;100851.97;5166988;28;20513;-57
2022/08/26 07:09:20;;;;;;;14.50;7.63;;;24.00;99.90;;;24.46;100.00;100852.03;5167653;28;20042;-57
2022/08/26 07:11:54;;;;;;;11.50;7.07;;;23.90;99.90;;;24.49;100.00;100852.84;5167622;28;20042;-59
2022/08/26 07:14:27;;;;;;;10.27;6.65;;;24.00;99.90;;;24.54;100.00;100855.41;5167394;28;20050;-58
2022/08/26 07:17:00;;;;;;;13.13;7.22;;;24.00;99.90;;;24.53;100.00;100853.66;5167011;28;20046;-58
2022/08/26 07:19:33;;;;;;;11.57;6.90;;;24.00;99.90;;;24.51;100.00;100850.13;5167341;28;20104;-59
2022/08/26 07:22:07;;;;;;;13.27;7.05;;;24.00;99.90;;;24.50;100.00;100849.25;5167139;28;20050;-58
2022/08/26 07:24:40;;;;;;;12.65;7.45;;;24.00;99.90;;;24.49;100.00;100863.50;5167098;28;20411;-57
2022/08/26 07:27:16;;;;;;;14.18;7.53;;;23.90;99.90;;;24.44;100.00;100860.03;5149115;28;20048;-57
2022/08/26 07:29:48;;;;;;;16.20;8.30;;;23.90;99.90;;;24.33;100.00;100856.72;5166832;28;20048;-58
2022/08/26 07:32:20;;;;;;;13.05;7.75;;;23.80;99.90;;;24.24;100.00;100862.22;5167069;28;20050;-57
2022/08/26 07:34:54;;;;;;;14.68;7.90;;;23.70;99.90;;;24.18;100.00;100867.66;5167061;28;20080;-57
2022/08/26 07:37:26;;;;;;;17.67;8.45;;;23.70;99.90;;;24.15;100.00;100867.72;5166706;28;20499;-57
2022/08/26 07:39:59;;;;;;;12.20;7.88;;;23.60;99.90;;;24.11;100.00;100872.22;5166825;28;20569;-58
2022/08/26 07:42:31;;;;;;;11.52;7.07;;;23.60;99.90;;;24.09;100.00;100874.94;5166800;28;20038;-57
2022/08/26 07:45:04;;;;;;;11.25;6.78;;;23.60;99.90;;;24.14;100.00;100876.63;5166976;28;20046;-57
2022/08/26 07:47:37;;;;;;;10.48;6.88;;;23.60;99.90;;;24.20;100.00;100876.50;5166058;28;20051;-57
2022/08/26 07:50:11;;;;;;;12.63;7.35;;;23.60;99.90;;;24.23;100.00;100879.09;5166450;28;20525;-57
2022/08/26 07:52:43;;;;;;;13.88;6.85;;;23.70;99.90;;;24.23;100.00;100879.09;5166614;28;20038;-57
2022/08/26 07:55:16;;;;;;;18.33;10.55;;;23.60;99.90;;;24.24;100.00;100879.06;5166813;28;20046;-59
2022/08/26 07:57:48;;;;;;;14.23;9.20;;;23.70;99.90;;;24.23;100.00;100882.66;5165227;28;20458;-56
2022/08/26 08:00:21;;;;;;;9.70;6.85;;;23.70;99.90;;;24.25;100.00;100886.16;5166485;28;20089;-58
2022/08/26 08:02:53;;;;;;;10.43;6.75;;;23.60;99.90;;;24.29;100.00;100881.66;5166380;28;20471;-58
2022/08/26 08:05:31;;;;;;;13.15;7.20;;;23.70;99.90;;;24.28;100.00;100878.09;5166284;28;20053;-58
2022/08/26 08:08:06;;;;;;;12.23;7.75;;;23.70;99.90;;;24.24;100.00;100883.53;5165842;28;20046;-57
2022/08/26 08:10:40;;;;;;;12.65;7.70;;;23.70;99.90;;;24.25;100.00;100885.28;5166423;28;20045;-58
2022/08/26 08:13:12;;;;;;;13.35;8.00;;;23.70;99.90;;;24.23;100.00;100887.97;5166197;28;20052;-57
2022/08/26 08:15:45;;;;;;;11.80;7.20;;;23.70;99.90;;;24.21;100.00;100883.59;5166101;28;20073;-58
2022/08/26 08:18:17;;;;;;;12.65;8.05;;;23.60;99.90;;;24.21;100.00;100881.81;5166233;28;20138;-57
2022/08/26 08:20:51;;;;;;;11.68;7.22;;;23.70;99.90;;;24.24;100.00;100883.53;5166108;28;20054;-57
2022/08/26 08:23:23;;;;;;;14.38;8.10;;;23.70;99.90;;;24.24;100.00;100888.84;5165885;28;20492;-58
2022/08/26 08:26:01;;;;;;;11.68;7.55;;;23.70;99.90;;;24.22;100.00;100885.34;5165464;28;20133;-57
2022/08/26 08:28:33;;;;;;;14.50;7.30;;;23.60;99.90;;;24.22;100.00;100883.56;5165862;28;20054;-58
2022/08/26 08:31:06;;;;;;;9.73;6.93;;;23.70;99.90;;;24.28;100.00;100890.56;5165815;28;20070;-57
2022/08/26 08:33:38;;;;;;;12.13;8.15;;;23.70;99.90;;;24.31;100.00;100882.47;5165859;28;20039;-57
2022/08/26 08:36:13;;;;;;;13.57;8.20;;;23.70;99.90;;;24.31;100.00;100890.47;5165405;28;20054;-56
2022/08/26 08:38:45;;;;;;;13.50;7.88;;;23.70;99.90;;;24.33;100.00;100894.00;5165793;28;20046;-58
2022/08/26 08:41:57;;;;;;;13.25;8.70;;;23.70;99.90;;;24.31;100.00;100890.47;5165807;28;20053;-57
2022/08/26 08:44:30;;;;;;;13.73;8.98;;;23.80;99.90;;;24.26;100.00;100887.94;5165622;28;20104;-58
2022/08/26 08:47:12;;;;;;;13.80;7.93;;;23.70;99.90;;;24.24;100.00;100883.53;5165072;28;20057;-56
2022/08/26 08:49:45;;;;;;;13.07;8.25;;;23.70;99.90;;;24.23;100.00;100893.28;5165590;28;20051;-56
2022/08/26 08:52:29;;;;;;;12.45;7.85;;;23.70;99.90;;;24.22;100.00;100891.53;5165459;28;20461;-58
2022/08/26 08:55:02;;;;;;;15.63;8.55;;;23.70;99.90;;;24.20;100.00;100888.03;5165500;28;20551;-57
2022/08/26 08:57:57;;;;;;;15.27;8.63;;;23.70;99.90;;;24.22;100.00;100890.66;5164854;28;20459;-58
2022/08/26 09:00:37;;;;;;;18.30;10.38;;;23.70;99.90;;;24.23;100.00;100895.09;5165527;28;20072;-58
2022/08/26 09:03:27;;;;;;;17.10;10.27;;;23.70;99.90;;;24.25;100.00;100901.25;5165145;28;20049;-57
2022/08/26 09:06:01;;;;;;;22.73;12.57;;;23.70;99.90;;;24.22;100.00;100896.00;5164662;28;20042;-57
2022/08/26 09:08:35;;;;;;;22.63;13.13;;;23.60;99.90;;;24.17;100.00;100895.19;5164874;28;20042;-59
2022/08/26 09:11:08;;;;;;;23.88;14.45;;;23.60;99.90;;;24.10;100.00;100897.97;5165183;28;20117;-58
2022/08/26 09:13:49;;;;;;;21.52;12.90;;;23.60;99.90;;;24.12;100.00;100899.72;5164749;28;20046;-58
2022/08/26 09:16:32;;;;;;;24.80;13.95;;;23.60;99.90;;;24.10;100.00;100897.97;5164792;28;20562;-58
2022/08/26 09:19:18;;;;;;;22.80;12.23;;;23.60;99.90;;;24.07;100.00;100892.72;5164866;28;20046;-56
2022/08/26 09:21:55;;;;;;;23.30;13.65;;;23.60;99.90;;;24.05;100.00;100897.19;5164861;28;20061;-58
2022/08/26 09:24:31;;;;;;;24.08;12.73;;;23.60;99.90;;;24.05;100.00;100899.84;5165104;28;20045;-59
2022/08/26 09:27:03;;;;;;;25.40;13.13;;;23.50;99.90;;;24.05;100.00;100904.31;5164271;28;20092;-57
2022/08/26 09:29:43;;;;;;;27.00;13.98;;;23.50;99.90;;;24.04;100.00;100902.53;5164499;28;20562;-58
2022/08/26 09:32:20;;;;;;;24.95;13.65;;;23.50;99.90;;;24.05;100.00;100897.19;5164737;28;20042;-60
2022/08/26 09:34:57;;;;;;;22.63;12.73;;;23.50;99.90;;;24.08;100.00;100899.81;5164666;28;20042;-60
2022/08/26 09:37:40;;;;;;;24.60;13.63;;;23.60;99.90;;;24.13;100.00;100896.19;5164130;28;20121;-58
2022/08/26 09:40:26;;;;;;;23.90;12.88;;;23.60;99.90;;;24.20;100.00;100903.16;5164604;28;20056;-58
2022/08/26 09:43:16;;;;;;;21.40;12.73;;;23.60;99.90;;;24.24;100.00;100894.16;5164439;28;20125;-56
2022/08/26 09:45:53;;;;;;;19.52;11.63;;;23.70;99.90;;;24.25;100.00;100902.13;5164169;28;20050;-60
2022/08/26 09:48:30;;;;;;;19.77;11.48;;;23.70;99.90;;;24.27;100.00;100899.47;5164529;28;20120;-57
2022/08/26 09:51:06;;;;;;;18.10;10.95;;;23.70;99.90;;;24.24;100.00;100902.16;5164290;28;20057;-57
2022/08/26 09:53:53;;;;;;;21.98;12.50;;;23.70;99.90;;;24.23;100.00;100901.28;5164558;28;20523;-57
2022/08/26 09:56:28;;;;;;;;;;;23.70;99.90;;;24.20;100.00;100903.16;5164349;28;20065;-58
2022/08/26 09:59:02;;;;;;;17.15;10.45;;;23.70;99.90;;;24.19;100.00;100896.03;5164187;28;19926;-56
2022/08/26 10:01:40;;;;;;;19.15;9.70;;;23.70;99.90;;;24.22;100.00;100901.31;5164071;28;20054;-57
2022/08/26 10:04:21;;;;;;;16.52;9.35;;;23.70;99.90;;;24.22;100.00;100898.66;5164155;28;20411;-56
2022/08/26 10:07:00;;;;;;;13.30;8.35;;;23.70;99.90;;;24.24;100.00;100899.50;5163839;28;20054;-58
2022/08/26 10:09:37;;;;;;;14.25;8.07;;;23.70;99.90;;;24.23;100.00;100903.94;5164145;28;20534;-57
2022/08/26 10:12:15;;;;;;;12.95;8.18;;;23.70;99.90;;;24.19;100.00;100904.03;5164012;28;20046;-58
2022/08/26 10:14:51;;;;;;;14.73;8.45;;;23.70;99.90;;;24.16;100.00;100904.97;5163883;28;20050;-57
2022/08/26 10:17:32;;;;;;;12.48;8.02;;;23.70;99.90;;;24.16;100.00;100906.78;5163944;28;20136;-59
2022/08/26 10:20:10;;;;;;;13.07;7.72;;;23.70;99.90;;;24.14;100.00;100897.94;5163475;28;20048;-59
2022/08/26 10:22:47;;;;;;;11.07;6.82;;;23.70;99.90;;;24.13;100.00;100898.84;5163751;28;20062;-57
2022/08/26 10:25:27;;;;;;;14.80;7.85;;;23.70;99.90;;;24.13;100.00;100901.53;5164195;28;20104;-56
2022/08/26 10:28:08;;;;;;;13.80;7.10;;;23.60;99.90;;;24.16;100.00;100901.44;5163476;28;20526;-57
2022/08/26 10:30:47;;;;;;;12.13;7.03;;;23.60;99.90;;;24.17;100.00;100898.75;5163531;28;20038;-57
2022/08/26 10:33:19;;;;;;;14.90;7.65;;;23.70;99.90;;;24.18;100.00;100899.63;5163670;28;20045;-57
2022/08/26 10:35:55;;;;;;;11.07;6.68;;;23.70;99.90;;;24.21;100.00;100888.91;5163346;28;20050;-57
2022/08/26 10:38:33;;;;;;;12.48;7.32;;;23.70;99.90;;;24.23;100.00;100898.63;5163640;28;20137;-57
2022/08/26 10:41:11;;;;;;;11.88;6.93;;;23.70;99.90;;;24.26;100.00;100892.38;5163507;28;20050;-57